Report METAR

 

KSJC - San Jose, California, USA
Distance from station: NE 14km
Dati ricevuti: 18/10/2021 18:53
Parz. nuvoloso
Parz. nuvoloso
 Vento da NO
Vento: NO 17 km/h
Temperatura: 14°C
P.to Rugiada: 7°C
Umidità: 63%
Barometro: 1017.9 hPa
Nuvole: Parz. nuvoloso
Visibility: 16 km
Cloud details: Few Clouds 488 m
Parz. nuvoloso 762 m
Parz. nuvoloso 1219 m
2021/10/18 16:53 KSJC 181653Z 32009KT 10SM FEW016 SCT025 SCT040 14/07 A3006 RMK AO2 SLP177 T01440072
KNUQ - Moffett Nas/Mtn, California, USA
Distance from station: N 14km
Dati ricevuti: 18/10/2021 19:10
Molto nuvoloso
Molto nuvoloso
 Vento da ONO
Vento: ONO 11 km/h, Raffica: 22 km/h
Temperatura: 14°C
P.to Rugiada: 7°C
Umidità: 63%
Barometro: 1017.9 hPa
Nuvole: Molto nuvoloso
Visibility: 14 km
Cloud details: Molto nuvoloso 975 m
Molto nuvoloso 1189 m
2021/10/18 17:10 KNUQ 181710Z AUTO 29006G12KT 9SM BKN032 BKN039 14/07 A3006 RMK AO2
 
KPAO - Palo Alto, California, USA
Distance from station: NNO 23km
Dati ricevuti: 18/10/2021 18:47
Parz. nuvoloso
Parz. nuvoloso
 Vento da ONO
Vento: ONO 17 km/h
Temperatura: 13°C
P.to Rugiada: 7°C
Umidità: 67%
Barometro: 1017.9 hPa
Nuvole: Parz. nuvoloso
Visibility: 16 km
Cloud details: Parz. nuvoloso 762 m
2021/10/18 16:47 KPAO 181647Z 29009KT 10SM SCT025 13/07 A3006
KRHV - San Jose/Reid, California, USA
Distance from station: ENE 19km
Dati ricevuti: 18/10/2021 18:50
Molto nuvoloso
Molto nuvoloso
 Vento da Variabile
Vento: Variabile 7 km/h
Temperatura: 12°C
P.to Rugiada: 7°C
Umidità: 72%
Barometro: 1017.9 hPa
Nuvole: Molto nuvoloso
Visibility: 16 km
Cloud details: Molto nuvoloso 762 m
2021/10/18 16:50 KRHV 181650Z VRB04KT 10SM BKN025 12/07 A3006
 
KOAK - Oakland, California, USA
Distance from station: NNO 50km
Dati ricevuti: 18/10/2021 18:53
Parz. nuvoloso
Parz. nuvoloso
 Vento da O
Vento: O 20 km/h
Temperatura: 14°C
P.to Rugiada: 8°C
Umidità: 67%
Barometro: 1017.6 hPa
Nuvole: Parz. nuvoloso
Visibility: 16 km
Cloud details: Parz. nuvoloso 640 m
2021/10/18 16:53 KOAK 181653Z 27011KT 10SM SCT021 14/08 A3005 RMK AO2 SLP174 T01440078
KSQL - San Carlos Airpo, California, USA
Distance from station: NO 34km
Dati ricevuti: 18/10/2021 17:47
DATI Obsoleti
Parz. nuvoloso
Parz. nuvoloso
 Vento da O
Vento: O 19 km/h
Temperatura: 13°C
P.to Rugiada: 8°C
Umidità: 72%
Barometro: 1017.6 hPa
Nuvole: Parz. nuvoloso
Visibility: 16 km
Cloud details: Parz. nuvoloso 762 m
2021/10/18 15:47 KSQL 181547Z 27010KT 10SM SCT025 13/08 A3005
 
KSFO - San Francisco, California, USA
Distance from station: NO 49km
Dati ricevuti: 18/10/2021 18:56
Molto nuvoloso
Molto nuvoloso
 Vento da O
Vento: O 17 km/h
Temperatura: 14°C
P.to Rugiada: 8°C
Umidità: 67%
Barometro: 1017.6 hPa
Nuvole: Molto nuvoloso
Visibility: 16 km
Cloud details: Molto nuvoloso 762 m
2021/10/18 16:56 KSFO 181656Z 28009KT 10SM BKN025 14/08 A3005 RMK AO2 SLP175 T01440083
KE16 - San Martin, California, USA
Distance from station: ESE 43km
Dati ricevuti: 18/10/2021 19:15
Molto nuvoloso
Molto nuvoloso
 Vento da calmo
Vento: Calma
Temperatura: 12°C
P.to Rugiada: 8°C
Umidità: 77%
Barometro: 1018.6 hPa
Nuvole: Molto nuvoloso
Visibility: 16 km
Cloud details: Molto nuvoloso 1341 m
2021/10/18 17:15 KE16 181715Z AUTO 00000KT 10SM BKN044 12/08 A3008 RMK AO2 PWINO PNO
 
KWVI - Watsonville, California, USA
Distance from station: SSE 44km
Dati ricevuti: 18/10/2021 18:53
Sereno
Sereno
 Vento da SSE
Vento: SSE 6 km/h
Temperatura: 13°C
P.to Rugiada: 9°C
Umidità: 77%
Barometro: 1018.3 hPa
Nuvole: Sereno
Visibility: 16 km
2021/10/18 16:53 KWVI 181653Z AUTO 16003KT 10SM CLR 13/09 A3007 RMK AO2 SLP182 T01280089
KHAF - Half Moon Bay, California, USA
Distance from station: ONO 50km
Dati ricevuti: 18/10/2021 19:15
Molto nuvoloso
Molto nuvoloso
 Vento da ONO
Vento: ONO 11 km/h
Temperatura: 13°C
P.to Rugiada: 10°C
Umidità: 82%
Barometro: 1017.9 hPa
Nuvole: Molto nuvoloso
Visibility: 11 km
Cloud details: Parz. nuvoloso 579 m
Parz. nuvoloso 853 m
Molto nuvoloso 1158 m
2021/10/18 17:15 KHAF 181715Z AUTO 30006KT 7SM SCT019 SCT028 BKN038 13/10 A3006 RMK AO2
 
KHWD - Hayward, California, USA
Distance from station: N 44km
Dati ricevuti: 18/10/2021 18:54
Parz. nuvoloso
Parz. nuvoloso
 Vento da O
Vento: O 20 km/h
Temperatura: 14°C
P.to Rugiada: 8°C
Umidità: 67%
Barometro: 1017.6 hPa
Nuvole: Parz. nuvoloso
Visibility: 16 km
Cloud details: Parz. nuvoloso 610 m
2021/10/18 16:54 KHWD 181654Z 27011KT 10SM SCT020 14/08 A3005 RMK AO2 SLP184 T01390078
KLVK - Livermore, California, USA
Distance from station: NNE 51km
Dati ricevuti: 18/10/2021 18:53
Parz. nuvoloso
Parz. nuvoloso
 Vento da O
Vento: O 20 km/h
Temperatura: 13°C
P.to Rugiada: 7°C
Umidità: 67%
Barometro: 1017.3 hPa
Nuvole: Parz. nuvoloso
Visibility: 16 km
Cloud details: Few Clouds 792 m
Parz. nuvoloso 1006 m
2021/10/18 16:53 KLVK 181653Z 27011KT 10SM FEW026 SCT033 13/07 A3004 RMK AO2 SLP169 T01280072